createdAt,value
2017-07-08T00:01:41.773Z,64.14
2017-07-08T00:04:10.106Z,63.57
2017-07-08T00:06:38.469Z,62.86
2017-07-08T00:09:07.129Z,63.15
2017-07-08T00:11:35.459Z,63.40
2017-07-08T00:14:03.822Z,63.90
2017-07-08T00:16:32.888Z,62.82
2017-07-08T00:19:01.217Z,63.35
2017-07-08T00:21:29.573Z,63.68
2017-07-08T00:23:58.590Z,64.66
2017-07-08T00:26:26.946Z,63.90
2017-07-08T00:28:55.274Z,63.71
2017-07-08T00:31:23.958Z,63.30
2017-07-08T00:33:52.326Z,64.11
2017-07-08T00:36:20.670Z,63.56
2017-07-08T00:38:49.736Z,63.53
2017-07-08T00:41:18.065Z,63.90
2017-07-08T00:43:46.407Z,63.79
2017-07-08T00:46:15.084Z,63.98
2017-07-08T00:48:43.418Z,64.17
2017-07-08T00:51:11.765Z,64.38
2017-07-08T00:53:40.453Z,65.17
2017-07-08T00:56:08.819Z,65.09
2017-07-08T00:58:37.169Z,64.47
2017-07-08T01:01:06.165Z,65.18
2017-07-08T01:03:34.526Z,65.01
2017-07-08T01:06:03.636Z,64.89
2017-07-08T01:08:33.258Z,65.28
2017-07-08T01:11:01.590Z,65.32
2017-07-08T01:13:29.931Z,64.98
2017-07-08T01:15:58.615Z,65.29
2017-07-08T01:18:26.989Z,65.47
2017-07-08T01:20:55.339Z,65.08
2017-07-08T01:23:24.434Z,65.47
2017-07-08T01:25:52.771Z,66.30
2017-07-08T01:28:21.113Z,65.24
2017-07-08T01:30:49.806Z,65.60
2017-07-08T01:33:18.152Z,66.49
2017-07-08T01:35:47.362Z,66.36
2017-07-08T01:38:16.042Z,66.92
2017-07-08T01:40:44.422Z,66.81
2017-07-08T01:43:12.765Z,66.92
2017-07-08T01:45:41.547Z,67.03
2017-07-08T01:48:09.908Z,67.81
2017-07-08T01:50:38.249Z,67.39
2017-07-08T01:53:07.204Z,67.93
2017-07-08T01:55:35.570Z,67.73
2017-07-08T01:58:03.914Z,68.11
2017-07-08T02:00:32.615Z,67.89
2017-07-08T02:03:00.978Z,67.32
2017-07-08T02:05:29.328Z,67.86
2017-07-08T02:07:58.241Z,68.04
2017-07-08T02:10:26.580Z,67.98
2017-07-08T02:12:54.930Z,67.63
2017-07-08T02:15:23.592Z,67.64
2017-07-08T02:17:52.006Z,68.36
2017-07-08T02:20:20.371Z,68.10
2017-07-08T02:22:49.133Z,67.93
2017-07-08T02:25:17.488Z,67.84
2017-07-08T02:27:45.836Z,67.63
2017-07-08T02:30:14.690Z,67.82
2017-07-08T02:32:43.025Z,67.43
2017-07-08T02:35:11.383Z,68.05
2017-07-08T02:37:40.045Z,68.00
2017-07-08T02:40:08.378Z,68.43
2017-07-08T02:42:36.738Z,68.34
2017-07-08T02:45:05.472Z,67.95
2017-07-08T02:47:33.823Z,67.83
2017-07-08T02:50:02.167Z,68.30
2017-07-08T02:52:30.897Z,68.72
2017-07-08T02:54:59.247Z,68.58
2017-07-08T02:57:27.575Z,68.41
2017-07-08T02:59:56.973Z,68.50
2017-07-08T03:02:25.308Z,68.94
2017-07-08T03:04:53.630Z,68.66
2017-07-08T03:07:22.257Z,68.57
2017-07-08T03:09:50.612Z,68.55
2017-07-08T03:12:18.942Z,68.90
2017-07-08T03:14:47.783Z,69.05
2017-07-08T03:17:16.124Z,69.01
2017-07-08T03:19:44.455Z,69.10
2017-07-08T03:22:13.078Z,69.35
2017-07-08T03:24:41.435Z,69.94
2017-07-08T03:27:09.765Z,70.00
2017-07-08T03:29:38.438Z,70.27
2017-07-08T03:32:07.545Z,70.62
2017-07-08T03:34:36.637Z,70.47
2017-07-08T03:37:06.386Z,69.88
2017-07-08T03:39:34.744Z,69.62
2017-07-08T03:42:03.086Z,69.10
2017-07-08T03:44:31.753Z,69.05
2017-07-08T03:47:00.081Z,68.88
2017-07-08T03:49:29.192Z,68.90
2017-07-08T03:51:57.850Z,68.73
2017-07-08T03:54:26.941Z,68.93
2017-07-08T03:56:56.080Z,69.08
2017-07-08T03:59:24.802Z,68.64
2017-07-08T04:01:53.154Z,68.79
2017-07-08T04:04:21.477Z,68.41
2017-07-08T04:06:50.909Z,69.07
2017-07-08T04:09:19.255Z,68.78
2017-07-08T04:11:48.379Z,68.43
2017-07-08T04:14:17.172Z,68.81
2017-07-08T04:16:45.515Z,68.53
2017-07-08T04:19:13.869Z,68.65
2017-07-08T04:21:42.694Z,68.73
2017-07-08T04:24:11.066Z,69.22
2017-07-08T04:26:39.453Z,70.15
2017-07-08T04:29:08.103Z,69.73
2017-07-08T04:31:36.474Z,69.25
2017-07-08T04:34:04.815Z,69.33
2017-07-08T04:36:33.726Z,69.80
2017-07-08T04:39:02.069Z,69.93
2017-07-08T04:41:30.417Z,70.52
2017-07-08T04:43:59.207Z,70.63
2017-07-08T04:46:27.558Z,70.68
2017-07-08T04:48:55.886Z,71.09
2017-07-08T04:51:24.800Z,70.41
2017-07-08T04:53:53.139Z,71.02
2017-07-08T04:56:21.479Z,71.82
2017-07-08T04:58:50.243Z,71.43
2017-07-08T05:01:18.586Z,71.45
2017-07-08T05:03:46.927Z,72.47
2017-07-08T05:06:16.087Z,72.63
2017-07-08T05:08:44.435Z,73.15
2017-07-08T05:11:12.797Z,72.95
2017-07-08T05:13:41.543Z,72.75
2017-07-08T05:16:09.887Z,74.25
2017-07-08T05:18:38.247Z,74.59
2017-07-08T05:21:06.990Z,73.48
2017-07-08T05:23:35.335Z,73.34
2017-07-08T05:26:03.702Z,72.86
2017-07-08T05:28:32.417Z,73.12
2017-07-08T05:31:00.777Z,73.67
2017-07-08T05:33:29.106Z,73.50
2017-07-08T05:35:57.795Z,72.74
2017-07-08T05:38:26.144Z,72.96
2017-07-08T05:40:54.510Z,71.74
2017-07-08T05:43:23.139Z,71.97
2017-07-08T05:45:51.499Z,71.54
2017-07-08T05:48:19.858Z,71.76
2017-07-08T05:50:48.893Z,72.08
2017-07-08T05:53:17.274Z,72.13
2017-07-08T05:55:45.781Z,72.07
2017-07-08T05:58:14.466Z,72.85
2017-07-08T06:00:42.810Z,72.36
2017-07-08T06:03:11.161Z,72.50
2017-07-08T06:05:39.805Z,72.25
2017-07-08T06:08:08.143Z,72.70
2017-07-08T06:10:36.510Z,73.62
2017-07-08T06:13:05.483Z,73.31
2017-07-08T06:15:33.820Z,73.72
2017-07-08T06:18:02.180Z,72.94
2017-07-08T06:20:31.174Z,72.85
2017-07-08T06:22:59.504Z,72.72
2017-07-08T06:25:27.859Z,72.65
2017-07-08T06:27:56.609Z,72.69
2017-07-08T06:30:24.943Z,72.87
2017-07-08T06:32:53.302Z,72.33
2017-07-08T06:35:22.077Z,72.34
2017-07-08T06:37:50.406Z,71.71
2017-07-08T06:40:18.788Z,71.42
2017-07-08T06:42:47.542Z,71.65
2017-07-08T06:45:15.889Z,71.82
2017-07-08T06:47:44.272Z,71.44
2017-07-08T06:50:13.056Z,72.40
2017-07-08T06:52:42.162Z,71.90
2017-07-08T06:55:10.535Z,71.71
2017-07-08T06:57:39.528Z,71.58
2017-07-08T07:00:07.890Z,71.45
2017-07-08T07:02:36.268Z,71.36
2017-07-08T07:05:05.686Z,70.39
2017-07-08T07:07:34.058Z,70.89
2017-07-08T07:10:03.187Z,69.65
2017-07-08T07:12:31.874Z,68.08
2017-07-08T07:15:00.234Z,67.52
2017-07-08T07:17:28.591Z,66.73
2017-07-08T07:19:57.388Z,66.90
2017-07-08T07:22:25.738Z,65.79
2017-07-08T07:24:54.085Z,65.43
2017-07-08T07:27:22.919Z,64.75
2017-07-08T07:29:52.064Z,63.25
2017-07-08T07:32:20.418Z,62.86
2017-07-08T07:34:49.102Z,62.39
2017-07-08T07:37:17.443Z,61.35
2017-07-08T07:39:45.811Z,61.20
2017-07-08T07:42:14.769Z,60.64
2017-07-08T07:44:43.100Z,60.88
2017-07-08T07:47:11.449Z,59.66
2017-07-08T07:49:40.207Z,58.61
2017-07-08T07:52:08.542Z,59.19
2017-07-08T07:54:36.894Z,58.37
2017-07-08T07:57:05.537Z,57.66
2017-07-08T07:59:34.647Z,57.33
2017-07-08T08:02:02.997Z,56.13
2017-07-08T08:04:32.123Z,56.10
2017-07-08T08:07:00.459Z,55.41
2017-07-08T08:09:28.803Z,55.98
2017-07-08T08:11:57.562Z,55.09
2017-07-08T08:14:25.912Z,54.97
2017-07-08T08:16:54.243Z,52.76
2017-07-08T08:19:22.860Z,50.71
2017-07-08T08:21:51.213Z,51.05
2017-07-08T08:24:19.562Z,50.94
2017-07-08T08:26:48.711Z,50.27
2017-07-08T08:29:17.085Z,50.03
2017-07-08T08:31:45.432Z,49.37
2017-07-08T08:34:14.099Z,49.88
2017-07-08T08:36:42.612Z,50.98
2017-07-08T08:39:10.962Z,51.35
2017-07-08T08:41:39.621Z,51.05
2017-07-08T08:44:07.968Z,51.05
2017-07-08T08:46:36.315Z,49.41
2017-07-08T08:49:05.406Z,49.46
2017-07-08T08:51:33.815Z,48.24
2017-07-08T08:54:02.149Z,47.66
2017-07-08T08:56:30.833Z,46.74
2017-07-08T08:58:59.230Z,46.91
2017-07-08T09:01:27.590Z,47.75
2017-07-08T09:03:56.241Z,46.91
2017-07-08T09:06:24.595Z,46.45
2017-07-08T09:08:52.929Z,47.37
2017-07-08T09:11:22.503Z,47.19
2017-07-08T09:13:50.853Z,47.24
2017-07-08T09:16:19.201Z,46.50
2017-07-08T09:18:48.603Z,45.12
2017-07-08T09:21:16.948Z,44.46
2017-07-08T09:23:45.328Z,44.52
2017-07-08T09:26:14.279Z,45.37
2017-07-08T09:28:42.652Z,45.44
2017-07-08T09:31:10.984Z,44.59
2017-07-08T09:33:40.135Z,43.13
2017-07-08T09:36:08.507Z,43.70
2017-07-08T09:38:36.854Z,44.00
2017-07-08T09:41:05.545Z,44.55
2017-07-08T09:43:33.886Z,45.49
2017-07-08T09:46:02.312Z,43.87
2017-07-08T09:48:30.988Z,43.78
2017-07-08T09:50:59.463Z,42.75
2017-07-08T09:53:27.835Z,42.83
2017-07-08T09:55:56.671Z,42.82
2017-07-08T09:58:25.095Z,43.28
2017-07-08T10:00:53.568Z,43.02
2017-07-08T10:03:22.248Z,42.41
2017-07-08T10:05:50.661Z,42.15
2017-07-08T10:08:19.071Z,42.50
2017-07-08T10:10:47.744Z,44.18
2017-07-08T10:13:16.117Z,43.92
2017-07-08T10:15:45.294Z,43.92
2017-07-08T10:18:14.266Z,43.12
2017-07-08T10:20:42.618Z,43.38
2017-07-08T10:23:10.978Z,43.87
2017-07-08T10:25:39.692Z,43.79
2017-07-08T10:28:08.075Z,43.75
2017-07-08T10:30:36.476Z,43.60
2017-07-08T10:33:05.165Z,42.70
2017-07-08T10:35:33.606Z,42.62
2017-07-08T10:38:02.017Z,42.67
2017-07-08T10:40:30.992Z,43.12
2017-07-08T10:42:59.357Z,41.93
2017-07-08T10:45:27.713Z,40.92
2017-07-08T10:47:56.667Z,40.14
2017-07-08T10:50:25.009Z,39.69
2017-07-08T10:52:53.377Z,39.12
2017-07-08T10:55:22.077Z,38.84
2017-07-08T10:57:50.465Z,40.05
2017-07-08T11:00:18.848Z,40.75
2017-07-08T11:02:48.132Z,40.79
2017-07-08T11:05:16.472Z,39.87
2017-07-08T11:07:44.828Z,39.11
2017-07-08T11:10:13.783Z,39.16
2017-07-08T11:12:42.179Z,39.34
2017-07-08T11:15:10.550Z,40.61
2017-07-08T11:17:39.441Z,41.02
2017-07-08T11:20:07.912Z,40.62
2017-07-08T11:22:36.264Z,41.15
2017-07-08T11:25:05.513Z,42.70
2017-07-08T11:27:33.862Z,47.07
2017-07-08T11:30:03.030Z,48.84
2017-07-08T11:32:31.881Z,49.67
2017-07-08T11:35:00.278Z,48.93
2017-07-08T11:37:28.771Z,47.57
2017-07-08T11:39:57.436Z,45.56
2017-07-08T11:42:25.885Z,47.30
2017-07-08T11:44:54.274Z,46.94
2017-07-08T11:47:23.412Z,45.03
2017-07-08T11:49:51.763Z,44.27
2017-07-08T11:52:20.134Z,44.54
2017-07-08T11:54:48.917Z,46.71
2017-07-08T11:57:17.272Z,45.79
2017-07-08T11:59:46.449Z,47.01
2017-07-08T12:02:15.442Z,47.07
2017-07-08T12:04:43.816Z,47.34
2017-07-08T12:07:12.136Z,48.19
2017-07-08T12:09:41.060Z,48.81
2017-07-08T12:12:09.431Z,52.51
2017-07-08T12:14:37.820Z,53.01
2017-07-08T12:17:06.516Z,54.02
2017-07-08T12:19:34.921Z,54.60
2017-07-08T12:22:03.327Z,55.31
2017-07-08T12:24:32.735Z,55.93
2017-07-08T12:27:01.082Z,57.00
2017-07-08T12:29:29.540Z,57.84
2017-07-08T12:31:58.391Z,57.52
2017-07-08T12:34:26.775Z,56.47
2017-07-08T12:36:55.136Z,55.95
2017-07-08T12:39:23.823Z,53.65
2017-07-08T12:41:52.192Z,53.27
2017-07-08T12:44:21.439Z,52.56
2017-07-08T12:46:50.053Z,52.06
2017-07-08T12:49:18.415Z,52.82
2017-07-08T12:51:46.860Z,51.06
2017-07-08T12:54:15.916Z,48.76
2017-07-08T12:56:44.309Z,49.13
2017-07-08T12:59:13.483Z,48.38
2017-07-08T13:01:42.435Z,49.37
2017-07-08T13:04:10.857Z,48.54
2017-07-08T13:06:39.267Z,48.88
2017-07-08T13:09:08.876Z,49.03
2017-07-08T13:11:37.227Z,49.29
2017-07-08T13:14:05.612Z,50.02
2017-07-08T13:16:34.559Z,50.63
2017-07-08T13:19:03.010Z,49.61
2017-07-08T13:21:31.393Z,49.40
2017-07-08T13:24:00.927Z,50.52
2017-07-08T13:26:29.326Z,49.73
2017-07-08T13:28:57.724Z,49.30
2017-07-08T13:31:26.526Z,49.11
2017-07-08T13:33:54.912Z,49.91
2017-07-08T13:36:23.284Z,49.96
2017-07-08T13:38:52.058Z,50.65
2017-07-08T13:41:20.432Z,50.45
2017-07-08T13:43:48.797Z,51.06
2017-07-08T13:46:17.566Z,51.28
2017-07-08T13:48:45.946Z,53.38
2017-07-08T13:51:14.375Z,56.96
2017-07-08T13:53:43.096Z,57.25
2017-07-08T13:56:11.500Z,57.36
2017-07-08T13:58:39.859Z,57.15
2017-07-08T14:01:08.710Z,57.97
2017-07-08T14:03:37.083Z,57.91
2017-07-08T14:06:05.452Z,57.38
2017-07-08T14:08:34.300Z,57.17
2017-07-08T14:11:02.698Z,58.51
2017-07-08T14:13:31.115Z,58.19
2017-07-08T14:15:59.978Z,58.36
2017-07-08T14:18:28.378Z,58.91
2017-07-08T14:20:56.741Z,59.14
2017-07-08T14:23:25.638Z,59.96
2017-07-08T14:25:54.062Z,59.13
2017-07-08T14:28:22.439Z,59.79
2017-07-08T14:30:51.846Z,58.39
2017-07-08T14:33:20.229Z,58.18
2017-07-08T14:35:48.609Z,59.12
2017-07-08T14:38:17.306Z,60.93
2017-07-08T14:40:45.713Z,60.29
2017-07-08T14:43:14.167Z,60.86
2017-07-08T14:45:43.380Z,60.97
2017-07-08T14:48:11.780Z,61.16
2017-07-08T14:50:40.167Z,60.51
2017-07-08T14:53:09.034Z,60.66
2017-07-08T14:55:37.387Z,60.75
2017-07-08T14:58:05.751Z,60.87
2017-07-08T15:00:34.372Z,60.49
2017-07-08T15:03:02.775Z,60.05
2017-07-08T15:05:31.136Z,59.78
2017-07-08T15:07:59.896Z,58.89
2017-07-08T15:10:28.312Z,59.24
2017-07-08T15:12:56.752Z,58.09
2017-07-08T15:15:26.489Z,57.72
2017-07-08T15:17:54.871Z,57.12
2017-07-08T15:20:23.244Z,57.07
2017-07-08T15:22:51.903Z,56.65
2017-07-08T15:25:21.090Z,55.28
2017-07-08T15:27:49.459Z,55.29
2017-07-08T15:30:18.494Z,53.86
2017-07-08T15:32:46.891Z,55.67
2017-07-08T15:35:15.299Z,56.05
2017-07-08T15:37:43.956Z,55.19
2017-07-08T15:40:12.379Z,54.75
2017-07-08T15:42:40.798Z,54.19
2017-07-08T15:45:09.587Z,54.94
2017-07-08T15:47:38.003Z,54.23
2017-07-08T15:50:06.423Z,51.94
2017-07-08T15:52:35.233Z,52.17
2017-07-08T15:55:03.614Z,51.09
2017-07-08T15:57:32.002Z,50.52
2017-07-08T16:00:00.918Z,50.36
2017-07-08T16:02:29.312Z,50.39
2017-07-08T16:04:57.686Z,51.26
2017-07-08T16:07:26.340Z,50.95
2017-07-08T16:09:54.755Z,51.33
2017-07-08T16:12:23.112Z,51.71
2017-07-08T16:14:51.988Z,51.30
2017-07-08T16:17:20.345Z,50.90
2017-07-08T16:19:49.476Z,51.19
2017-07-08T16:22:18.150Z,50.97
2017-07-08T16:24:46.563Z,52.00
2017-07-08T16:27:14.913Z,52.19
2017-07-08T16:29:43.694Z,51.92
2017-07-08T16:32:12.060Z,51.25
2017-07-08T16:34:41.163Z,51.65
2017-07-08T16:37:10.698Z,51.48
2017-07-08T16:39:39.019Z,51.88
2017-07-08T16:42:07.371Z,52.14
2017-07-08T16:44:36.013Z,50.85
2017-07-08T16:47:04.368Z,50.42
2017-07-08T16:49:32.803Z,50.70
2017-07-08T16:52:01.464Z,49.90
2017-07-08T16:54:29.841Z,50.75
2017-07-08T16:56:58.243Z,51.08
2017-07-08T16:59:27.000Z,51.52
2017-07-08T17:01:56.123Z,51.62
2017-07-08T17:04:24.495Z,52.09
2017-07-08T17:06:53.169Z,50.92
2017-07-08T17:09:21.512Z,50.09
2017-07-08T17:11:49.870Z,50.11
2017-07-08T17:14:19.456Z,50.57
2017-07-08T17:16:47.802Z,49.17
2017-07-08T17:19:16.142Z,48.46
2017-07-08T17:21:45.091Z,48.86
2017-07-08T17:24:13.470Z,48.62
2017-07-08T17:26:41.817Z,48.87
2017-07-08T17:29:10.449Z,48.49
2017-07-08T17:31:38.774Z,48.61
2017-07-08T17:34:07.101Z,48.33
2017-07-08T17:36:35.788Z,48.54
2017-07-08T17:39:04.150Z,48.53
2017-07-08T17:41:33.295Z,48.45
2017-07-08T17:44:02.405Z,48.72
2017-07-08T17:46:30.735Z,49.16
2017-07-08T17:48:59.086Z,49.87
2017-07-08T17:51:27.783Z,49.04
2017-07-08T17:53:56.122Z,48.82
2017-07-08T17:56:24.475Z,49.22
2017-07-08T17:58:53.133Z,49.22
2017-07-08T18:01:21.498Z,48.91
2017-07-08T18:03:50.585Z,49.59
2017-07-08T18:06:19.554Z,49.37
2017-07-08T18:08:47.921Z,49.07
2017-07-08T18:11:16.275Z,48.54
2017-07-08T18:13:44.943Z,49.04
2017-07-08T18:16:13.286Z,49.86
2017-07-08T18:18:41.642Z,49.97
2017-07-08T18:21:10.293Z,49.74
2017-07-08T18:23:38.624Z,49.77
2017-07-08T18:26:06.989Z,50.03
2017-07-08T18:28:35.790Z,49.75
2017-07-08T18:31:04.143Z,50.68
2017-07-08T18:33:32.489Z,49.71
2017-07-08T18:36:01.191Z,50.19
2017-07-08T18:38:29.530Z,50.76
2017-07-08T18:40:57.871Z,50.75
2017-07-08T18:43:26.650Z,50.74
2017-07-08T18:45:54.998Z,50.58
2017-07-08T18:48:24.118Z,51.27
2017-07-08T18:50:52.958Z,51.44
2017-07-08T18:53:21.276Z,51.57
2017-07-08T18:55:49.630Z,52.05
2017-07-08T18:58:18.605Z,52.71
2017-07-08T19:00:46.937Z,52.20
2017-07-08T19:03:15.290Z,52.08
2017-07-08T19:05:43.989Z,52.28
2017-07-08T19:08:12.344Z,52.35
2017-07-08T19:10:41.460Z,52.34
2017-07-08T19:13:10.386Z,52.76
2017-07-08T19:15:38.721Z,53.70
2017-07-08T19:18:07.070Z,53.67
2017-07-08T19:20:35.724Z,54.82
2017-07-08T19:23:04.052Z,54.61
2017-07-08T19:25:32.397Z,54.23
2017-07-08T19:28:01.141Z,54.53
2017-07-08T19:30:29.507Z,54.51
2017-07-08T19:32:58.594Z,55.05
2017-07-08T19:35:27.264Z,55.21
2017-07-08T19:37:55.653Z,55.41
2017-07-08T19:40:23.985Z,55.79
2017-07-08T19:42:52.614Z,55.43
2017-07-08T19:45:20.982Z,55.74
2017-07-08T19:47:49.320Z,55.83
2017-07-08T19:50:18.096Z,56.47
2017-07-08T19:52:46.426Z,56.27
2017-07-08T19:55:14.764Z,56.55
2017-07-08T19:57:43.763Z,56.91
2017-07-08T20:00:12.134Z,56.92
2017-07-08T20:02:40.465Z,57.39
2017-07-08T20:05:09.124Z,57.59
2017-07-08T20:07:37.517Z,58.06
2017-07-08T20:10:05.909Z,57.83
2017-07-08T20:12:34.647Z,58.33
2017-07-08T20:15:03.001Z,58.61
2017-07-08T20:17:31.345Z,58.65
2017-07-08T20:20:00.132Z,58.66
2017-07-08T20:22:28.494Z,58.60
2017-07-08T20:24:56.839Z,58.42
2017-07-08T20:27:25.487Z,58.64
2017-07-08T20:29:53.825Z,58.98
2017-07-08T20:32:22.173Z,59.05
2017-07-08T20:34:51.607Z,59.08
2017-07-08T20:37:19.954Z,59.36
2017-07-08T20:39:48.299Z,60.05
2017-07-08T20:42:17.236Z,60.24
2017-07-08T20:44:45.607Z,59.81
2017-07-08T20:47:14.741Z,60.25
2017-07-08T20:49:43.410Z,60.34
2017-07-08T20:52:11.771Z,60.17
2017-07-08T20:54:40.112Z,59.99
2017-07-08T20:57:08.762Z,59.92
2017-07-08T20:59:37.102Z,59.98
2017-07-08T21:02:05.450Z,60.04
2017-07-08T21:04:34.294Z,59.57
2017-07-08T21:07:02.657Z,59.67
2017-07-08T21:09:31.011Z,60.25
2017-07-08T21:11:59.985Z,60.41
2017-07-08T21:14:28.350Z,60.52
2017-07-08T21:16:56.709Z,60.23
2017-07-08T21:19:25.476Z,60.04
2017-07-08T21:21:53.828Z,59.84
2017-07-08T21:24:22.198Z,59.85
2017-07-08T21:26:51.164Z,59.85
2017-07-08T21:29:19.648Z,59.89
2017-07-08T21:31:48.011Z,60.25
2017-07-08T21:34:16.646Z,60.64
2017-07-08T21:36:44.992Z,60.55
2017-07-08T21:39:13.326Z,60.17
2017-07-08T21:41:42.253Z,59.85
2017-07-08T21:44:10.595Z,60.29
2017-07-08T21:46:39.693Z,60.66
2017-07-08T21:49:09.296Z,60.84
2017-07-08T21:51:37.694Z,61.06
2017-07-08T21:54:06.805Z,61.37
2017-07-08T21:56:35.512Z,61.89
2017-07-08T21:59:03.862Z,61.87
2017-07-08T22:01:32.206Z,61.76
2017-07-08T22:04:00.881Z,61.33
2017-07-08T22:06:29.250Z,61.75
2017-07-08T22:08:57.593Z,61.97
2017-07-08T22:11:26.487Z,61.69
2017-07-08T22:13:54.833Z,62.37
2017-07-08T22:16:23.953Z,61.84
2017-07-08T22:18:52.598Z,61.67
2017-07-08T22:21:20.947Z,61.84
2017-07-08T22:23:49.292Z,62.30
2017-07-08T22:26:17.978Z,62.55
2017-07-08T22:28:46.310Z,62.18
2017-07-08T22:31:14.657Z,62.60
2017-07-08T22:33:43.387Z,62.61
2017-07-08T22:36:11.758Z,62.08
2017-07-08T22:38:40.088Z,62.28
2017-07-08T22:41:08.889Z,62.97
2017-07-08T22:43:37.240Z,63.59
2017-07-08T22:46:06.379Z,63.91
2017-07-08T22:48:35.067Z,64.43
2017-07-08T22:51:03.430Z,63.56
2017-07-08T22:53:31.794Z,63.85
2017-07-08T22:56:01.000Z,63.76
2017-07-08T22:58:29.348Z,63.00
2017-07-08T23:00:58.482Z,63.26
2017-07-08T23:03:27.141Z,63.31
2017-07-08T23:05:56.297Z,63.81
2017-07-08T23:08:24.635Z,63.74
2017-07-08T23:10:53.259Z,63.54
2017-07-08T23:13:21.616Z,63.05
2017-07-08T23:15:49.959Z,63.38
2017-07-08T23:18:19.480Z,63.77
2017-07-08T23:20:47.815Z,64.06
2017-07-08T23:23:16.144Z,63.98
2017-07-08T23:25:44.909Z,64.01
2017-07-08T23:28:14.024Z,65.03
2017-07-08T23:30:42.362Z,64.75
2017-07-08T23:33:11.077Z,64.95
2017-07-08T23:35:39.448Z,65.27
2017-07-08T23:38:07.801Z,65.43
2017-07-08T23:40:36.469Z,64.80
2017-07-08T23:43:04.834Z,64.41
2017-07-08T23:45:33.183Z,64.68
2017-07-08T23:48:01.930Z,65.06
2017-07-08T23:50:30.249Z,65.13
2017-07-08T23:52:58.595Z,64.82
2017-07-08T23:55:27.408Z,64.87
2017-07-08T23:57:55.787Z,65.15
